sensor_id;sensor_type;location;lat;lon;timestamp;P1;durP1;ratioP1;P2;durP2;ratioP2
10303;SDS011;5197;48.152;8.590;2022-11-23T00:03:50;4.00;;;1.73;;
10303;SDS011;5197;48.152;8.590;2022-11-23T00:06:18;2.10;;;1.50;;
10303;SDS011;5197;48.152;8.590;2022-11-23T00:08:49;3.60;;;1.97;;
10303;SDS011;5197;48.152;8.590;2022-11-23T00:11:17;3.57;;;2.13;;
10303;SDS011;5197;48.152;8.590;2022-11-23T00:13:45;4.90;;;2.00;;
10303;SDS011;5197;48.152;8.590;2022-11-23T00:16:14;4.97;;;1.93;;
10303;SDS011;5197;48.152;8.590;2022-11-23T00:18:46;4.90;;;1.23;;
10303;SDS011;5197;48.152;8.590;2022-11-23T00:21:14;3.70;;;1.57;;
10303;SDS011;5197;48.152;8.590;2022-11-23T00:23:43;4.23;;;1.90;;
10303;SDS011;5197;48.152;8.590;2022-11-23T00:26:11;3.47;;;1.60;;
10303;SDS011;5197;48.152;8.590;2022-11-23T00:28:38;4.43;;;1.33;;
10303;SDS011;5197;48.152;8.590;2022-11-23T00:31:06;1.30;;;1.20;;
10303;SDS011;5197;48.152;8.590;2022-11-23T00:33:34;6.00;;;1.20;;
10303;SDS011;5197;48.152;8.590;2022-11-23T00:36:04;3.93;;;1.60;;
10303;SDS011;5197;48.152;8.590;2022-11-23T00:38:34;2.00;;;1.47;;
10303;SDS011;5197;48.152;8.590;2022-11-23T00:41:05;7.50;;;4.00;;
10303;SDS011;5197;48.152;8.590;2022-11-23T00:43:37;8.23;;;4.30;;
10303;SDS011;5197;48.152;8.590;2022-11-23T00:46:14;6.07;;;3.47;;
10303;SDS011;5197;48.152;8.590;2022-11-23T00:48:45;7.07;;;3.70;;
10303;SDS011;5197;48.152;8.590;2022-11-23T00:51:15;6.13;;;3.43;;
10303;SDS011;5197;48.152;8.590;2022-11-23T00:53:44;4.30;;;2.53;;
10303;SDS011;5197;48.152;8.590;2022-11-23T00:56:11;7.17;;;3.07;;
10303;SDS011;5197;48.152;8.590;2022-11-23T00:58:38;5.70;;;2.70;;
10303;SDS011;5197;48.152;8.590;2022-11-23T01:01:07;4.83;;;2.63;;
10303;SDS011;5197;48.152;8.590;2022-11-23T01:03:35;4.67;;;1.93;;
10303;SDS011;5197;48.152;8.590;2022-11-23T01:06:06;2.70;;;1.50;;
10303;SDS011;5197;48.152;8.590;2022-11-23T01:08:35;4.00;;;1.70;;
10303;SDS011;5197;48.152;8.590;2022-11-23T01:11:04;4.50;;;1.80;;
10303;SDS011;5197;48.152;8.590;2022-11-23T01:13:33;5.27;;;1.47;;
10303;SDS011;5197;48.152;8.590;2022-11-23T01:16:00;3.27;;;1.40;;
10303;SDS011;5197;48.152;8.590;2022-11-23T01:18:27;2.83;;;1.20;;
10303;SDS011;5197;48.152;8.590;2022-11-23T01:20:54;2.37;;;1.40;;
10303;SDS011;5197;48.152;8.590;2022-11-23T01:23:21;2.70;;;1.37;;
10303;SDS011;5197;48.152;8.590;2022-11-23T01:25:48;6.57;;;1.93;;
10303;SDS011;5197;48.152;8.590;2022-11-23T01:28:22;5.77;;;1.90;;
10303;SDS011;5197;48.152;8.590;2022-11-23T01:30:49;2.70;;;1.60;;
10303;SDS011;5197;48.152;8.590;2022-11-23T01:33:16;2.83;;;1.50;;
10303;SDS011;5197;48.152;8.590;2022-11-23T01:35:43;3.57;;;1.33;;
10303;SDS011;5197;48.152;8.590;2022-11-23T01:38:09;3.33;;;1.50;;
10303;SDS011;5197;48.152;8.590;2022-11-23T01:40:43;3.87;;;1.80;;
10303;SDS011;5197;48.152;8.590;2022-11-23T01:43:14;4.37;;;1.37;;
10303;SDS011;5197;48.152;8.590;2022-11-23T01:45:52;2.97;;;1.40;;
10303;SDS011;5197;48.152;8.590;2022-11-23T01:48:24;2.83;;;1.60;;
10303;SDS011;5197;48.152;8.590;2022-11-23T01:50:52;3.27;;;1.60;;
10303;SDS011;5197;48.152;8.590;2022-11-23T01:53:21;4.07;;;1.50;;
10303;SDS011;5197;48.152;8.590;2022-11-23T01:55:48;2.93;;;1.30;;
10303;SDS011;5197;48.152;8.590;2022-11-23T01:58:18;6.30;;;1.80;;
10303;SDS011;5197;48.152;8.590;2022-11-23T02:00:46;2.47;;;1.60;;
10303;SDS011;5197;48.152;8.590;2022-11-23T02:03:15;4.77;;;1.30;;
10303;SDS011;5197;48.152;8.590;2022-11-23T02:05:44;3.07;;;1.47;;
10303;SDS011;5197;48.152;8.590;2022-11-23T02:08:14;3.50;;;1.77;;
10303;SDS011;5197;48.152;8.590;2022-11-23T02:10:43;2.60;;;1.30;;
10303;SDS011;5197;48.152;8.590;2022-11-23T02:13:11;4.70;;;1.67;;
10303;SDS011;5197;48.152;8.590;2022-11-23T02:15:39;4.47;;;1.67;;
10303;SDS011;5197;48.152;8.590;2022-11-23T02:18:09;3.07;;;1.80;;
10303;SDS011;5197;48.152;8.590;2022-11-23T02:20:41;7.20;;;1.50;;
10303;SDS011;5197;48.152;8.590;2022-11-23T02:23:13;5.03;;;1.60;;
10303;SDS011;5197;48.152;8.590;2022-11-23T02:26:04;6.07;;;1.60;;
10303;SDS011;5197;48.152;8.590;2022-11-23T02:29:00;8.23;;;1.77;;
10303;SDS011;5197;48.152;8.590;2022-11-23T02:31:28;4.53;;;1.70;;
10303;SDS011;5197;48.152;8.590;2022-11-23T02:33:55;3.17;;;1.80;;
10303;SDS011;5197;48.152;8.590;2022-11-23T02:39:04;2.40;;;1.50;;
10303;SDS011;5197;48.152;8.590;2022-11-23T02:41:40;7.53;;;1.43;;
10303;SDS011;5197;48.152;8.590;2022-11-23T02:47:08;3.00;;;1.20;;
10303;SDS011;5197;48.152;8.590;2022-11-23T02:49:37;2.37;;;1.50;;
10303;SDS011;5197;48.152;8.590;2022-11-23T02:52:08;3.87;;;1.30;;
10303;SDS011;5197;48.152;8.590;2022-11-23T02:54:35;1.80;;;1.70;;
10303;SDS011;5197;48.152;8.590;2022-11-23T02:57:02;7.00;;;1.63;;
10303;SDS011;5197;48.152;8.590;2022-11-23T02:59:30;11.40;;;3.20;;
10303;SDS011;5197;48.152;8.590;2022-11-23T03:01:58;7.27;;;3.90;;
10303;SDS011;5197;48.152;8.590;2022-11-23T03:04:26;6.53;;;4.60;;
10303;SDS011;5197;48.152;8.590;2022-11-23T03:06:54;7.60;;;4.40;;
10303;SDS011;5197;48.152;8.590;2022-11-23T03:09:21;6.47;;;2.23;;
10303;SDS011;5197;48.152;8.590;2022-11-23T03:11:49;8.73;;;2.50;;
10303;SDS011;5197;48.152;8.590;2022-11-23T03:14:16;4.53;;;1.80;;
10303;SDS011;5197;48.152;8.590;2022-11-23T03:16:43;3.30;;;1.87;;
10303;SDS011;5197;48.152;8.590;2022-11-23T03:19:09;3.70;;;1.73;;
10303;SDS011;5197;48.152;8.590;2022-11-23T03:21:36;6.03;;;1.40;;
10303;SDS011;5197;48.152;8.590;2022-11-23T03:24:03;6.73;;;1.60;;
10303;SDS011;5197;48.152;8.590;2022-11-23T03:26:30;3.93;;;1.40;;
10303;SDS011;5197;48.152;8.590;2022-11-23T03:28:57;3.20;;;1.17;;
10303;SDS011;5197;48.152;8.590;2022-11-23T03:31:24;3.27;;;1.70;;
10303;SDS011;5197;48.152;8.590;2022-11-23T03:33:51;7.07;;;1.60;;
10303;SDS011;5197;48.152;8.590;2022-11-23T03:36:18;4.97;;;2.10;;
10303;SDS011;5197;48.152;8.590;2022-11-23T03:38:45;4.73;;;1.80;;
10303;SDS011;5197;48.152;8.590;2022-11-23T03:41:12;4.27;;;1.70;;
10303;SDS011;5197;48.152;8.590;2022-11-23T03:43:39;4.97;;;1.57;;
10303;SDS011;5197;48.152;8.590;2022-11-23T03:46:06;4.37;;;1.70;;
10303;SDS011;5197;48.152;8.590;2022-11-23T03:48:32;7.37;;;1.60;;
10303;SDS011;5197;48.152;8.590;2022-11-23T03:50:59;4.57;;;1.80;;
10303;SDS011;5197;48.152;8.590;2022-11-23T03:53:26;5.03;;;1.90;;
10303;SDS011;5197;48.152;8.590;2022-11-23T03:55:53;4.00;;;1.50;;
10303;SDS011;5197;48.152;8.590;2022-11-23T03:58:22;4.70;;;2.10;;
10303;SDS011;5197;48.152;8.590;2022-11-23T04:00:49;3.50;;;1.27;;
10303;SDS011;5197;48.152;8.590;2022-11-23T04:03:17;3.57;;;1.50;;
10303;SDS011;5197;48.152;8.590;2022-11-23T04:05:43;2.67;;;1.47;;
10303;SDS011;5197;48.152;8.590;2022-11-23T04:08:10;5.73;;;1.47;;
10303;SDS011;5197;48.152;8.590;2022-11-23T04:10:37;3.93;;;1.80;;
10303;SDS011;5197;48.152;8.590;2022-11-23T04:13:04;4.43;;;1.53;;
10303;SDS011;5197;48.152;8.590;2022-11-23T04:15:32;5.40;;;2.20;;
10303;SDS011;5197;48.152;8.590;2022-11-23T04:17:59;2.37;;;1.63;;
10303;SDS011;5197;48.152;8.590;2022-11-23T04:20:26;5.40;;;2.00;;
10303;SDS011;5197;48.152;8.590;2022-11-23T04:22:53;3.60;;;1.73;;
10303;SDS011;5197;48.152;8.590;2022-11-23T04:25:20;7.90;;;1.97;;
10303;SDS011;5197;48.152;8.590;2022-11-23T04:27:47;2.80;;;1.77;;
10303;SDS011;5197;48.152;8.590;2022-11-23T04:30:14;6.63;;;1.63;;
10303;SDS011;5197;48.152;8.590;2022-11-23T04:32:43;6.80;;;1.77;;
10303;SDS011;5197;48.152;8.590;2022-11-23T04:35:11;2.97;;;1.73;;
10303;SDS011;5197;48.152;8.590;2022-11-23T04:37:38;3.07;;;1.40;;
10303;SDS011;5197;48.152;8.590;2022-11-23T04:40:05;5.37;;;1.97;;
10303;SDS011;5197;48.152;8.590;2022-11-23T04:42:32;5.13;;;3.03;;
10303;SDS011;5197;48.152;8.590;2022-11-23T04:44:59;7.57;;;2.73;;
10303;SDS011;5197;48.152;8.590;2022-11-23T04:47:26;7.47;;;2.90;;
10303;SDS011;5197;48.152;8.590;2022-11-23T04:49:53;6.13;;;2.40;;
10303;SDS011;5197;48.152;8.590;2022-11-23T04:52:20;6.07;;;1.60;;
10303;SDS011;5197;48.152;8.590;2022-11-23T04:54:47;5.00;;;1.80;;
10303;SDS011;5197;48.152;8.590;2022-11-23T04:57:14;3.40;;;1.97;;
10303;SDS011;5197;48.152;8.590;2022-11-23T04:59:41;3.37;;;2.00;;
10303;SDS011;5197;48.152;8.590;2022-11-23T05:02:08;4.17;;;1.80;;
10303;SDS011;5197;48.152;8.590;2022-11-23T05:04:35;3.77;;;1.80;;
10303;SDS011;5197;48.152;8.590;2022-11-23T05:07:02;6.43;;;2.50;;
10303;SDS011;5197;48.152;8.590;2022-11-23T05:09:29;4.20;;;2.10;;
10303;SDS011;5197;48.152;8.590;2022-11-23T05:11:57;3.80;;;2.20;;
10303;SDS011;5197;48.152;8.590;2022-11-23T05:14:24;5.13;;;2.50;;
10303;SDS011;5197;48.152;8.590;2022-11-23T05:16:51;5.63;;;2.60;;
10303;SDS011;5197;48.152;8.590;2022-11-23T05:19:18;4.13;;;2.67;;
10303;SDS011;5197;48.152;8.590;2022-11-23T05:21:45;4.57;;;2.60;;
10303;SDS011;5197;48.152;8.590;2022-11-23T05:24:12;6.10;;;2.50;;
10303;SDS011;5197;48.152;8.590;2022-11-23T05:26:39;5.87;;;2.20;;
10303;SDS011;5197;48.152;8.590;2022-11-23T05:29:06;3.50;;;2.10;;
10303;SDS011;5197;48.152;8.590;2022-11-23T05:31:33;4.67;;;1.90;;
10303;SDS011;5197;48.152;8.590;2022-11-23T05:34:00;5.57;;;1.80;;
10303;SDS011;5197;48.152;8.590;2022-11-23T05:36:27;3.37;;;2.20;;
10303;SDS011;5197;48.152;8.590;2022-11-23T05:38:54;4.60;;;1.97;;
10303;SDS011;5197;48.152;8.590;2022-11-23T05:41:21;4.20;;;1.80;;
10303;SDS011;5197;48.152;8.590;2022-11-23T05:43:48;10.27;;;2.40;;
10303;SDS011;5197;48.152;8.590;2022-11-23T05:46:15;11.93;;;3.00;;
10303;SDS011;5197;48.152;8.590;2022-11-23T05:48:42;12.80;;;2.40;;
10303;SDS011;5197;48.152;8.590;2022-11-23T05:51:09;13.37;;;2.33;;
10303;SDS011;5197;48.152;8.590;2022-11-23T05:53:36;12.63;;;2.40;;
10303;SDS011;5197;48.152;8.590;2022-11-23T05:56:03;8.27;;;2.77;;
10303;SDS011;5197;48.152;8.590;2022-11-23T05:58:30;8.10;;;2.50;;
10303;SDS011;5197;48.152;8.590;2022-11-23T06:00:58;8.50;;;3.10;;
10303;SDS011;5197;48.152;8.590;2022-11-23T06:03:28;7.53;;;4.83;;
10303;SDS011;5197;48.152;8.590;2022-11-23T06:05:55;6.57;;;4.67;;
10303;SDS011;5197;48.152;8.590;2022-11-23T06:08:22;9.80;;;5.03;;
10303;SDS011;5197;48.152;8.590;2022-11-23T06:10:49;10.00;;;5.00;;
10303;SDS011;5197;48.152;8.590;2022-11-23T06:13:16;9.33;;;5.80;;
10303;SDS011;5197;48.152;8.590;2022-11-23T06:15:43;11.00;;;6.00;;
10303;SDS011;5197;48.152;8.590;2022-11-23T06:18:10;10.47;;;5.63;;
10303;SDS011;5197;48.152;8.590;2022-11-23T06:20:37;6.70;;;4.87;;
10303;SDS011;5197;48.152;8.590;2022-11-23T06:23:04;6.90;;;4.87;;
10303;SDS011;5197;48.152;8.590;2022-11-23T06:25:30;6.27;;;4.63;;
10303;SDS011;5197;48.152;8.590;2022-11-23T06:27:59;12.57;;;5.13;;
10303;SDS011;5197;48.152;8.590;2022-11-23T06:30:27;11.57;;;5.93;;
10303;SDS011;5197;48.152;8.590;2022-11-23T06:32:55;19.67;;;5.10;;
10303;SDS011;5197;48.152;8.590;2022-11-23T06:35:22;8.80;;;5.10;;
10303;SDS011;5197;48.152;8.590;2022-11-23T06:37:51;13.67;;;5.43;;
10303;SDS011;5197;48.152;8.590;2022-11-23T06:40:20;9.33;;;4.27;;
10303;SDS011;5197;48.152;8.590;2022-11-23T06:42:47;11.17;;;5.40;;
10303;SDS011;5197;48.152;8.590;2022-11-23T06:45:14;7.93;;;5.00;;
10303;SDS011;5197;48.152;8.590;2022-11-23T06:47:41;16.37;;;7.10;;
10303;SDS011;5197;48.152;8.590;2022-11-23T06:50:09;12.47;;;6.50;;
10303;SDS011;5197;48.152;8.590;2022-11-23T06:52:36;26.00;;;7.90;;
10303;SDS011;5197;48.152;8.590;2022-11-23T06:55:03;26.77;;;8.60;;
10303;SDS011;5197;48.152;8.590;2022-11-23T06:57:31;28.43;;;9.80;;
10303;SDS011;5197;48.152;8.590;2022-11-23T06:59:58;23.90;;;9.87;;
10303;SDS011;5197;48.152;8.590;2022-11-23T07:02:24;24.13;;;9.87;;
10303;SDS011;5197;48.152;8.590;2022-11-23T07:04:52;30.67;;;10.53;;
10303;SDS011;5197;48.152;8.590;2022-11-23T07:07:19;30.60;;;10.93;;
10303;SDS011;5197;48.152;8.590;2022-11-23T07:09:46;23.37;;;10.50;;
10303;SDS011;5197;48.152;8.590;2022-11-23T07:12:13;25.30;;;10.87;;
10303;SDS011;5197;48.152;8.590;2022-11-23T07:14:40;25.63;;;11.30;;
10303;SDS011;5197;48.152;8.590;2022-11-23T07:17:07;13.50;;;8.30;;
10303;SDS011;5197;48.152;8.590;2022-11-23T07:19:34;24.27;;;10.90;;
10303;SDS011;5197;48.152;8.590;2022-11-23T07:22:01;23.23;;;10.50;;
10303;SDS011;5197;48.152;8.590;2022-11-23T07:24:28;24.70;;;10.50;;
10303;SDS011;5197;48.152;8.590;2022-11-23T07:27:04;21.40;;;8.97;;
10303;SDS011;5197;48.152;8.590;2022-11-23T07:29:31;23.80;;;10.07;;
10303;SDS011;5197;48.152;8.590;2022-11-23T07:31:58;20.10;;;9.80;;
10303;SDS011;5197;48.152;8.590;2022-11-23T07:34:28;31.63;;;11.33;;
10303;SDS011;5197;48.152;8.590;2022-11-23T07:36:55;22.27;;;11.23;;
10303;SDS011;5197;48.152;8.590;2022-11-23T07:39:27;22.97;;;12.10;;
10303;SDS011;5197;48.152;8.590;2022-11-23T07:42:14;24.73;;;12.07;;
10303;SDS011;5197;48.152;8.590;2022-11-23T07:45:02;24.47;;;11.30;;
10303;SDS011;5197;48.152;8.590;2022-11-23T07:47:30;29.93;;;13.87;;
10303;SDS011;5197;48.152;8.590;2022-11-23T07:49:57;33.23;;;15.00;;
10303;SDS011;5197;48.152;8.590;2022-11-23T07:52:24;26.43;;;13.27;;
10303;SDS011;5197;48.152;8.590;2022-11-23T07:54:51;22.07;;;12.37;;
10303;SDS011;5197;48.152;8.590;2022-11-23T07:57:18;19.57;;;11.90;;
10303;SDS011;5197;48.152;8.590;2022-11-23T07:59:45;24.13;;;12.03;;
10303;SDS011;5197;48.152;8.590;2022-11-23T08:02:13;18.17;;;10.33;;
10303;SDS011;5197;48.152;8.590;2022-11-23T08:04:40;16.60;;;9.10;;
10303;SDS011;5197;48.152;8.590;2022-11-23T08:07:07;19.23;;;9.33;;
10303;SDS011;5197;48.152;8.590;2022-11-23T08:09:35;15.67;;;9.20;;
10303;SDS011;5197;48.152;8.590;2022-11-23T08:12:02;15.87;;;8.93;;
10303;SDS011;5197;48.152;8.590;2022-11-23T08:14:29;14.63;;;8.50;;
10303;SDS011;5197;48.152;8.590;2022-11-23T08:16:57;20.80;;;8.30;;
10303;SDS011;5197;48.152;8.590;2022-11-23T08:19:24;14.60;;;7.60;;
10303;SDS011;5197;48.152;8.590;2022-11-23T08:21:51;14.27;;;8.47;;
10303;SDS011;5197;48.152;8.590;2022-11-23T08:24:19;17.03;;;7.97;;
10303;SDS011;5197;48.152;8.590;2022-11-23T08:26:46;12.90;;;8.40;;
10303;SDS011;5197;48.152;8.590;2022-11-23T08:29:13;12.80;;;8.10;;
10303;SDS011;5197;48.152;8.590;2022-11-23T08:31:40;14.43;;;7.83;;
10303;SDS011;5197;48.152;8.590;2022-11-23T08:34:07;14.77;;;8.93;;
10303;SDS011;5197;48.152;8.590;2022-11-23T08:36:33;11.47;;;7.87;;
10303;SDS011;5197;48.152;8.590;2022-11-23T08:39:00;13.07;;;7.83;;
10303;SDS011;5197;48.152;8.590;2022-11-23T08:41:27;17.70;;;9.03;;
10303;SDS011;5197;48.152;8.590;2022-11-23T08:43:54;20.10;;;10.90;;
10303;SDS011;5197;48.152;8.590;2022-11-23T08:46:21;35.03;;;17.73;;
10303;SDS011;5197;48.152;8.590;2022-11-23T08:48:48;19.77;;;9.73;;
10303;SDS011;5197;48.152;8.590;2022-11-23T08:51:15;14.10;;;7.27;;
10303;SDS011;5197;48.152;8.590;2022-11-23T08:53:48;11.50;;;6.23;;
10303;SDS011;5197;48.152;8.590;2022-11-23T08:56:15;10.87;;;5.83;;
10303;SDS011;5197;48.152;8.590;2022-11-23T08:58:42;8.83;;;6.30;;
10303;SDS011;5197;48.152;8.590;2022-11-23T09:01:10;8.43;;;5.60;;
10303;SDS011;5197;48.152;8.590;2022-11-23T09:03:43;15.17;;;8.70;;
10303;SDS011;5197;48.152;8.590;2022-11-23T09:06:10;16.77;;;9.53;;
10303;SDS011;5197;48.152;8.590;2022-11-23T09:08:37;13.73;;;8.83;;
10303;SDS011;5197;48.152;8.590;2022-11-23T09:11:09;20.17;;;9.87;;
10303;SDS011;5197;48.152;8.590;2022-11-23T09:13:38;11.37;;;6.00;;
10303;SDS011;5197;48.152;8.590;2022-11-23T09:16:06;9.47;;;4.80;;
10303;SDS011;5197;48.152;8.590;2022-11-23T09:18:33;6.87;;;5.93;;
10303;SDS011;5197;48.152;8.590;2022-11-23T09:21:03;8.40;;;5.87;;
10303;SDS011;5197;48.152;8.590;2022-11-23T09:23:30;9.27;;;6.40;;
10303;SDS011;5197;48.152;8.590;2022-11-23T09:25:58;8.57;;;6.00;;
10303;SDS011;5197;48.152;8.590;2022-11-23T09:28:26;11.13;;;6.73;;
10303;SDS011;5197;48.152;8.590;2022-11-23T09:30:54;10.13;;;5.87;;
10303;SDS011;5197;48.152;8.590;2022-11-23T09:33:23;8.20;;;6.33;;
10303;SDS011;5197;48.152;8.590;2022-11-23T09:36:00;15.33;;;6.07;;
10303;SDS011;5197;48.152;8.590;2022-11-23T09:38:29;7.57;;;5.80;;
10303;SDS011;5197;48.152;8.590;2022-11-23T09:49:37;15.73;;;6.67;;
10303;SDS011;5197;48.152;8.590;2022-11-23T09:52:18;10.70;;;6.87;;
10303;SDS011;5197;48.152;8.590;2022-11-23T09:54:48;10.40;;;6.20;;
10303;SDS011;5197;48.152;8.590;2022-11-23T09:57:18;9.70;;;5.40;;
10303;SDS011;5197;48.152;8.590;2022-11-23T10:00:36;13.67;;;5.87;;
10303;SDS011;5197;48.152;8.590;2022-11-23T10:02:47;6.67;;;4.57;;
10303;SDS011;5197;48.152;8.590;2022-11-23T10:05:16;8.27;;;5.03;;
10303;SDS011;5197;48.152;8.590;2022-11-23T10:07:52;7.13;;;5.30;;
10303;SDS011;5197;48.152;8.590;2022-11-23T10:24:28;3.90;;;2.67;;
10303;SDS011;5197;48.152;8.590;2022-11-23T10:26:59;7.93;;;4.17;;
10303;SDS011;5197;48.152;8.590;2022-11-23T10:29:29;5.37;;;3.27;;
10303;SDS011;5197;48.152;8.590;2022-11-23T10:32:06;5.97;;;2.83;;
10303;SDS011;5197;48.152;8.590;2022-11-23T10:35:11;4.20;;;3.30;;
10303;SDS011;5197;48.152;8.590;2022-11-23T10:37:39;3.07;;;2.87;;
10303;SDS011;5197;48.152;8.590;2022-11-23T10:40:16;4.53;;;2.30;;
10303;SDS011;5197;48.152;8.590;2022-11-23T10:42:58;4.67;;;2.30;;
10303;SDS011;5197;48.152;8.590;2022-11-23T10:45:29;5.10;;;2.43;;
10303;SDS011;5197;48.152;8.590;2022-11-23T10:47:57;3.97;;;2.10;;
10303;SDS011;5197;48.152;8.590;2022-11-23T10:53:00;4.97;;;2.77;;
10303;SDS011;5197;48.152;8.590;2022-11-23T10:55:46;3.27;;;2.07;;
10303;SDS011;5197;48.152;8.590;2022-11-23T10:58:56;5.10;;;2.50;;
10303;SDS011;5197;48.152;8.590;2022-11-23T11:01:20;3.50;;;2.40;;
10303;SDS011;5197;48.152;8.590;2022-11-23T11:03:53;2.90;;;2.47;;
10303;SDS011;5197;48.152;8.590;2022-11-23T11:06:22;3.83;;;2.60;;
10303;SDS011;5197;48.152;8.590;2022-11-23T11:08:52;6.13;;;2.30;;
10303;SDS011;5197;48.152;8.590;2022-11-23T11:11:28;4.97;;;2.07;;
10303;SDS011;5197;48.152;8.590;2022-11-23T11:16:33;6.53;;;2.27;;
10303;SDS011;5197;48.152;8.590;2022-11-23T11:19:20;5.10;;;2.60;;
10303;SDS011;5197;48.152;8.590;2022-11-23T11:21:47;7.03;;;3.90;;
10303;SDS011;5197;48.152;8.590;2022-11-23T11:24:15;2.77;;;2.37;;
10303;SDS011;5197;48.152;8.590;2022-11-23T11:26:46;6.17;;;2.60;;
10303;SDS011;5197;48.152;8.590;2022-11-23T11:29:29;4.27;;;1.80;;
10303;SDS011;5197;48.152;8.590;2022-11-23T11:32:10;2.83;;;1.90;;
10303;SDS011;5197;48.152;8.590;2022-11-23T11:34:48;5.73;;;2.23;;
10303;SDS011;5197;48.152;8.590;2022-11-23T11:43:31;4.30;;;1.90;;
10303;SDS011;5197;48.152;8.590;2022-11-23T11:46:13;2.30;;;2.10;;
10303;SDS011;5197;48.152;8.590;2022-11-23T11:49:07;4.67;;;2.10;;
10303;SDS011;5197;48.152;8.590;2022-11-23T11:51:41;3.90;;;1.80;;
10303;SDS011;5197;48.152;8.590;2022-11-23T11:56:51;3.40;;;1.67;;
10303;SDS011;5197;48.152;8.590;2022-11-23T11:59:29;3.60;;;1.70;;
10303;SDS011;5197;48.152;8.590;2022-11-23T12:04:40;3.47;;;1.63;;
10303;SDS011;5197;48.152;8.590;2022-11-23T12:07:23;10.87;;;1.60;;
10303;SDS011;5197;48.152;8.590;2022-11-23T12:09:56;4.03;;;1.20;;
10303;SDS011;5197;48.152;8.590;2022-11-23T12:12:31;1.70;;;1.00;;
10303;SDS011;5197;48.152;8.590;2022-11-23T12:15:01;3.23;;;1.60;;
10303;SDS011;5197;48.152;8.590;2022-11-23T12:23:35;3.17;;;1.70;;
10303;SDS011;5197;48.152;8.590;2022-11-23T12:29:51;4.53;;;1.50;;
10303;SDS011;5197;48.152;8.590;2022-11-23T12:49:20;1.30;;;1.20;;
10303;SDS011;5197;48.152;8.590;2022-11-23T12:58:08;6.70;;;2.23;;
10303;SDS011;5197;48.152;8.590;2022-11-23T13:00:18;6.27;;;2.93;;
10303;SDS011;5197;48.152;8.590;2022-11-23T13:02:58;2.13;;;1.50;;
10303;SDS011;5197;48.152;8.590;2022-11-23T13:05:55;5.87;;;2.50;;
10303;SDS011;5197;48.152;8.590;2022-11-23T13:22:04;3.17;;;1.20;;
10303;SDS011;5197;48.152;8.590;2022-11-23T13:24:57;3.23;;;1.30;;
10303;SDS011;5197;48.152;8.590;2022-11-23T13:29:57;5.40;;;2.10;;
10303;SDS011;5197;48.152;8.590;2022-11-23T13:32:43;3.63;;;1.60;;
10303;SDS011;5197;48.152;8.590;2022-11-23T13:40:29;1.43;;;1.33;;
10303;SDS011;5197;48.152;8.590;2022-11-23T13:43:39;4.17;;;1.60;;
10303;SDS011;5197;48.152;8.590;2022-11-23T13:48:45;6.20;;;2.90;;
10303;SDS011;5197;48.152;8.590;2022-11-23T13:51:29;1.37;;;1.17;;
10303;SDS011;5197;48.152;8.590;2022-11-23T13:53:59;1.20;;;1.10;;
10303;SDS011;5197;48.152;8.590;2022-11-23T13:56:35;1.60;;;1.50;;
10303;SDS011;5197;48.152;8.590;2022-11-23T14:02:00;2.63;;;1.57;;
10303;SDS011;5197;48.152;8.590;2022-11-23T14:04:35;4.23;;;1.57;;
10303;SDS011;5197;48.152;8.590;2022-11-23T14:10:05;4.33;;;1.63;;
10303;SDS011;5197;48.152;8.590;2022-11-23T14:15:33;3.80;;;1.40;;
10303;SDS011;5197;48.152;8.590;2022-11-23T14:23:41;1.90;;;1.80;;
10303;SDS011;5197;48.152;8.590;2022-11-23T14:42:44;4.17;;;1.90;;
10303;SDS011;5197;48.152;8.590;2022-11-23T14:45:16;3.67;;;1.80;;
10303;SDS011;5197;48.152;8.590;2022-11-23T14:47:46;5.13;;;1.53;;
10303;SDS011;5197;48.152;8.590;2022-11-23T14:50:23;3.17;;;1.00;;
10303;SDS011;5197;48.152;8.590;2022-11-23T14:52:55;5.07;;;1.47;;
10303;SDS011;5197;48.152;8.590;2022-11-23T14:55:25;5.53;;;1.57;;
10303;SDS011;5197;48.152;8.590;2022-11-23T14:57:56;8.03;;;2.13;;
10303;SDS011;5197;48.152;8.590;2022-11-23T15:02:59;2.47;;;2.10;;
10303;SDS011;5197;48.152;8.590;2022-11-23T15:05:53;7.87;;;3.03;;
10303;SDS011;5197;48.152;8.590;2022-11-23T15:08:25;2.80;;;1.67;;
10303;SDS011;5197;48.152;8.590;2022-11-23T15:11:02;4.07;;;1.90;;
10303;SDS011;5197;48.152;8.590;2022-11-23T15:13:45;4.83;;;1.47;;
10303;SDS011;5197;48.152;8.590;2022-11-23T15:16:18;5.27;;;1.90;;
10303;SDS011;5197;48.152;8.590;2022-11-23T15:18:46;6.87;;;2.23;;
10303;SDS011;5197;48.152;8.590;2022-11-23T15:21:16;3.90;;;1.90;;
10303;SDS011;5197;48.152;8.590;2022-11-23T15:23:52;3.30;;;1.53;;
10303;SDS011;5197;48.152;8.590;2022-11-23T15:26:23;2.70;;;1.20;;
10303;SDS011;5197;48.152;8.590;2022-11-23T15:29:32;2.93;;;2.63;;
10303;SDS011;5197;48.152;8.590;2022-11-23T15:32:02;6.97;;;2.50;;
10303;SDS011;5197;48.152;8.590;2022-11-23T15:34:59;2.20;;;1.83;;
10303;SDS011;5197;48.152;8.590;2022-11-23T15:37:29;3.80;;;1.77;;
10303;SDS011;5197;48.152;8.590;2022-11-23T15:40:02;4.27;;;2.60;;
10303;SDS011;5197;48.152;8.590;2022-11-23T15:42:31;9.53;;;2.57;;
10303;SDS011;5197;48.152;8.590;2022-11-23T15:44:58;3.70;;;2.53;;
10303;SDS011;5197;48.152;8.590;2022-11-23T15:47:26;7.00;;;2.27;;
10303;SDS011;5197;48.152;8.590;2022-11-23T15:49:58;5.67;;;2.63;;
10303;SDS011;5197;48.152;8.590;2022-11-23T15:52:28;6.30;;;3.57;;
10303;SDS011;5197;48.152;8.590;2022-11-23T15:55:02;3.67;;;2.67;;
10303;SDS011;5197;48.152;8.590;2022-11-23T15:57:35;7.47;;;3.63;;
10303;SDS011;5197;48.152;8.590;2022-11-23T16:00:05;6.20;;;3.20;;
10303;SDS011;5197;48.152;8.590;2022-11-23T16:02:34;6.53;;;2.70;;
10303;SDS011;5197;48.152;8.590;2022-11-23T16:07:54;8.53;;;2.83;;
10303;SDS011;5197;48.152;8.590;2022-11-23T16:10:23;4.90;;;2.10;;
10303;SDS011;5197;48.152;8.590;2022-11-23T16:12:59;4.43;;;2.67;;
10303;SDS011;5197;48.152;8.590;2022-11-23T16:18:04;4.07;;;2.17;;
10303;SDS011;5197;48.152;8.590;2022-11-23T16:23:33;4.43;;;2.40;;
10303;SDS011;5197;48.152;8.590;2022-11-23T16:26:20;3.37;;;2.20;;
10303;SDS011;5197;48.152;8.590;2022-11-23T16:28:58;4.33;;;2.70;;
10303;SDS011;5197;48.152;8.590;2022-11-23T16:31:34;4.33;;;3.43;;
10303;SDS011;5197;48.152;8.590;2022-11-23T16:34:14;3.00;;;2.20;;
10303;SDS011;5197;48.152;8.590;2022-11-23T16:36:44;3.60;;;2.33;;
10303;SDS011;5197;48.152;8.590;2022-11-23T16:39:11;3.30;;;3.00;;
10303;SDS011;5197;48.152;8.590;2022-11-23T16:41:39;4.70;;;2.50;;
10303;SDS011;5197;48.152;8.590;2022-11-23T16:44:06;2.70;;;2.50;;
10303;SDS011;5197;48.152;8.590;2022-11-23T16:46:33;3.67;;;3.17;;
10303;SDS011;5197;48.152;8.590;2022-11-23T16:49:10;7.93;;;4.63;;
10303;SDS011;5197;48.152;8.590;2022-11-23T16:51:41;3.83;;;2.50;;
10303;SDS011;5197;48.152;8.590;2022-11-23T16:54:08;5.83;;;3.10;;
10303;SDS011;5197;48.152;8.590;2022-11-23T16:56:42;4.50;;;3.20;;
10303;SDS011;5197;48.152;8.590;2022-11-23T16:59:14;6.37;;;3.07;;
10303;SDS011;5197;48.152;8.590;2022-11-23T17:01:44;5.03;;;3.77;;
10303;SDS011;5197;48.152;8.590;2022-11-23T17:04:20;4.33;;;3.77;;
10303;SDS011;5197;48.152;8.590;2022-11-23T17:06:48;6.60;;;3.50;;
10303;SDS011;5197;48.152;8.590;2022-11-23T17:09:15;4.47;;;3.47;;
10303;SDS011;5197;48.152;8.590;2022-11-23T17:11:43;6.43;;;4.43;;
10303;SDS011;5197;48.152;8.590;2022-11-23T17:14:13;7.43;;;5.50;;
10303;SDS011;5197;48.152;8.590;2022-11-23T17:16:45;9.13;;;5.47;;
10303;SDS011;5197;48.152;8.590;2022-11-23T17:19:13;6.37;;;5.10;;
10303;SDS011;5197;48.152;8.590;2022-11-23T17:24:34;7.43;;;5.37;;
10303;SDS011;5197;48.152;8.590;2022-11-23T17:27:01;5.67;;;4.50;;
10303;SDS011;5197;48.152;8.590;2022-11-23T17:29:28;6.20;;;4.33;;
10303;SDS011;5197;48.152;8.590;2022-11-23T17:31:56;6.67;;;3.97;;
10303;SDS011;5197;48.152;8.590;2022-11-23T17:34:23;5.13;;;3.77;;
10303;SDS011;5197;48.152;8.590;2022-11-23T17:36:50;6.70;;;4.60;;
10303;SDS011;5197;48.152;8.590;2022-11-23T17:39:18;5.17;;;3.60;;
10303;SDS011;5197;48.152;8.590;2022-11-23T17:41:49;4.20;;;3.80;;
10303;SDS011;5197;48.152;8.590;2022-11-23T17:44:16;5.53;;;4.00;;
10303;SDS011;5197;48.152;8.590;2022-11-23T17:46:43;4.47;;;3.83;;